createdAt,value
2018-05-12T00:00:18.145Z,17.63
2018-05-12T00:02:47.265Z,10.57
2018-05-12T00:05:17.722Z,16.40
2018-05-12T00:07:46.957Z,14.50
2018-05-12T00:10:16.378Z,13.70
2018-05-12T00:12:46.716Z,13.57
2018-05-12T00:15:15.839Z,13.50
2018-05-12T00:17:45.405Z,12.43
2018-05-12T00:20:13.927Z,11.67
2018-05-12T00:22:42.407Z,12.07
2018-05-12T00:25:10.868Z,12.17
2018-05-12T00:27:39.295Z,15.87
2018-05-12T00:30:07.775Z,12.57
2018-05-12T00:32:36.190Z,18.07
2018-05-12T00:35:04.618Z,10.47
2018-05-12T00:37:33.055Z,10.47
2018-05-12T00:40:01.623Z,11.20
2018-05-12T00:42:30.172Z,15.80
2018-05-12T00:45:00.513Z,11.40
2018-05-12T00:47:28.980Z,16.43
2018-05-12T00:49:57.391Z,14.03
2018-05-12T00:52:25.819Z,13.27
2018-05-12T00:54:54.375Z,13.77
2018-05-12T00:57:22.776Z,13.10
2018-05-12T00:59:51.297Z,10.63
2018-05-12T01:02:19.729Z,11.20
2018-05-12T01:04:48.204Z,20.73
2018-05-12T01:07:16.624Z,13.50
2018-05-12T01:09:45.008Z,11.67
2018-05-12T01:12:17.093Z,19.57
2018-05-12T01:14:46.644Z,13.80
2018-05-12T01:17:15.183Z,15.80
2018-05-12T01:19:43.625Z,14.50
2018-05-12T01:22:12.067Z,12.73
2018-05-12T01:24:40.656Z,12.37
2018-05-12T01:27:09.118Z,19.70
2018-05-12T01:29:37.490Z,14.17
2018-05-12T01:32:10.686Z,17.83
2018-05-12T01:34:39.107Z,19.13
2018-05-12T01:37:07.595Z,19.57
2018-05-12T01:39:36.090Z,16.10
2018-05-12T01:42:04.633Z,20.97
2018-05-12T01:44:33.044Z,20.80
2018-05-12T01:47:01.516Z,19.00
2018-05-12T01:49:29.911Z,20.57
2018-05-12T01:51:58.310Z,17.30
2018-05-12T01:54:26.780Z,20.40
2018-05-12T01:56:56.136Z,24.10
2018-05-12T01:59:24.566Z,36.83
2018-05-12T02:01:52.950Z,22.10
2018-05-12T02:04:21.503Z,18.63
2018-05-12T02:06:49.913Z,18.83
2018-05-12T02:09:18.350Z,24.50
2018-05-12T02:11:46.763Z,18.23
2018-05-12T02:14:15.268Z,25.37
2018-05-12T02:16:43.667Z,17.70
2018-05-12T02:19:12.192Z,26.23
2018-05-12T02:21:40.601Z,26.40
2018-05-12T02:24:10.032Z,22.60
2018-05-12T02:26:38.540Z,26.23
2018-05-12T02:29:06.923Z,18.10
2018-05-12T02:31:35.516Z,19.13
2018-05-12T02:34:03.943Z,21.43
2018-05-12T02:36:32.326Z,19.20
2018-05-12T02:39:00.742Z,17.50
2018-05-12T02:41:29.135Z,27.57
2018-05-12T02:43:57.676Z,24.80
2018-05-12T02:46:26.072Z,23.53
2018-05-12T02:48:54.524Z,18.10
2018-05-12T02:51:22.939Z,26.50
2018-05-12T02:53:51.377Z,18.40
2018-05-12T02:56:19.775Z,23.33
2018-05-12T02:58:48.265Z,25.97
2018-05-12T03:01:17.696Z,21.73
2018-05-12T03:03:46.177Z,23.53
2018-05-12T03:06:14.621Z,27.13
2018-05-12T03:08:43.026Z,25.07
2018-05-12T03:11:11.474Z,26.07
2018-05-12T03:13:39.858Z,25.73
2018-05-12T03:16:08.286Z,22.37
2018-05-12T03:18:36.717Z,20.27
2018-05-12T03:21:05.128Z,23.73
2018-05-12T03:23:33.515Z,23.93
2018-05-12T03:26:01.915Z,19.60
2018-05-12T03:28:30.352Z,23.33
2018-05-12T03:30:58.850Z,22.90
2018-05-12T03:33:27.327Z,28.60
2018-05-12T03:35:55.840Z,23.07
2018-05-12T03:38:24.232Z,23.47
2018-05-12T03:40:52.628Z,25.90
2018-05-12T03:43:21.007Z,22.40
2018-05-12T03:45:49.554Z,22.07
2018-05-12T03:48:18.078Z,25.03
2018-05-12T03:50:46.567Z,28.27
2018-05-12T03:53:15.051Z,28.30
2018-05-12T03:55:43.467Z,28.33
2018-05-12T03:58:11.888Z,25.10
2018-05-12T04:00:40.286Z,28.93
2018-05-12T04:03:08.736Z,24.80
2018-05-12T04:05:48.798Z,26.87
2018-05-12T04:08:29.847Z,25.17
2018-05-12T04:11:10.145Z,24.20
2018-05-12T04:13:38.655Z,19.80
2018-05-12T04:16:07.101Z,21.27
2018-05-12T04:18:35.660Z,20.67
2018-05-12T04:21:04.112Z,22.83
2018-05-12T04:23:32.559Z,23.63
2018-05-12T04:26:01.080Z,27.90
2018-05-12T04:28:29.465Z,22.33
2018-05-12T04:30:57.988Z,21.87
2018-05-12T04:33:26.491Z,18.53
2018-05-12T04:35:55.096Z,20.40
2018-05-12T04:38:23.630Z,22.60
2018-05-12T04:40:52.059Z,18.87
2018-05-12T04:43:21.520Z,23.10
2018-05-12T04:45:49.909Z,20.37
2018-05-12T04:48:18.302Z,21.10
2018-05-12T04:50:46.725Z,19.60
2018-05-12T04:53:15.121Z,25.00
2018-05-12T04:55:43.625Z,26.50
2018-05-12T04:58:12.079Z,26.17
2018-05-12T05:00:41.454Z,21.70
2018-05-12T05:03:09.919Z,17.53
2018-05-12T05:05:38.384Z,19.20
2018-05-12T05:08:07.041Z,17.80
2018-05-12T05:10:35.388Z,16.47
2018-05-12T05:13:03.784Z,20.73
2018-05-12T05:15:32.243Z,17.83
2018-05-12T05:18:00.791Z,17.30
2018-05-12T05:20:29.413Z,18.00
2018-05-12T05:22:58.106Z,16.73
2018-05-12T05:25:26.759Z,15.50
2018-05-12T05:27:55.457Z,17.43
2018-05-12T05:30:23.878Z,17.90
2018-05-12T05:32:52.425Z,18.17
2018-05-12T05:35:20.891Z,13.50
2018-05-12T05:37:49.479Z,16.70
2018-05-12T05:40:18.875Z,18.83
2018-05-12T05:42:47.436Z,13.63
2018-05-12T05:45:16.055Z,10.67
2018-05-12T05:47:45.449Z,12.10
2018-05-12T05:50:14.016Z,12.90
2018-05-12T05:52:42.510Z,11.57
2018-05-12T05:55:11.123Z,13.17
2018-05-12T05:57:39.651Z,10.97
2018-05-12T06:00:08.272Z,10.70
2018-05-12T06:02:36.849Z,12.27
2018-05-12T06:05:05.281Z,10.37
2018-05-12T06:07:33.690Z,11.67
2018-05-12T06:10:04.072Z,10.50
2018-05-12T06:12:32.785Z,11.77
2018-05-12T06:15:01.312Z,9.43
2018-05-12T06:17:29.739Z,11.73
2018-05-12T06:19:58.270Z,11.50
2018-05-12T06:22:26.693Z,8.67
2018-05-12T06:24:55.229Z,11.57
2018-05-12T06:27:24.926Z,10.97
2018-05-12T06:29:53.440Z,12.03
2018-05-12T06:32:24.473Z,12.20
2018-05-12T06:34:53.039Z,16.10
2018-05-12T06:37:21.655Z,13.33
2018-05-12T06:39:51.257Z,13.53
2018-05-12T06:42:21.730Z,11.87
2018-05-12T06:44:50.555Z,13.50
2018-05-12T06:47:19.219Z,12.97
2018-05-12T06:49:48.197Z,15.87
2018-05-12T06:52:16.852Z,13.47
2018-05-12T06:54:45.721Z,14.33
2018-05-12T06:57:16.398Z,12.53
2018-05-12T06:59:45.028Z,17.10
2018-05-12T07:02:14.576Z,12.07
2018-05-12T07:04:43.679Z,14.80
2018-05-12T07:07:12.158Z,12.33
2018-05-12T07:09:40.823Z,13.03
2018-05-12T07:12:09.818Z,12.17
2018-05-12T07:14:40.398Z,15.70
2018-05-12T07:17:12.720Z,10.57
2018-05-12T07:19:41.803Z,12.23
2018-05-12T07:22:10.717Z,14.60
2018-05-12T07:24:39.477Z,12.40
2018-05-12T07:27:09.340Z,11.83
2018-05-12T07:29:43.376Z,11.00
2018-05-12T07:32:13.481Z,12.60
2018-05-12T07:34:43.377Z,10.83
2018-05-12T07:37:12.848Z,10.50
2018-05-12T07:39:41.586Z,8.93
2018-05-12T07:42:09.996Z,9.07
2018-05-12T07:44:38.641Z,8.10
2018-05-12T07:47:07.430Z,9.10
2018-05-12T07:49:35.958Z,11.37
2018-05-12T07:52:08.457Z,8.80
2018-05-12T07:54:37.769Z,14.07
2018-05-12T07:57:07.247Z,10.40
2018-05-12T07:59:37.625Z,9.13
2018-05-12T08:02:06.536Z,10.33
2018-05-12T08:04:36.072Z,11.13
2018-05-12T08:07:04.564Z,8.17
2018-05-12T08:09:33.156Z,6.50
2018-05-12T08:12:01.953Z,5.17
2018-05-12T08:14:30.588Z,3.70
2018-05-12T08:17:01.318Z,4.23
2018-05-12T08:19:33.207Z,3.67
2018-05-12T08:22:04.562Z,6.87
2018-05-12T08:24:33.175Z,4.40
2018-05-12T08:27:01.793Z,5.47
2018-05-12T08:29:30.368Z,5.63
2018-05-12T08:31:58.778Z,6.43
2018-05-12T08:34:27.322Z,8.17
2018-05-12T08:36:57.229Z,6.40
2018-05-12T08:39:25.819Z,5.23
2018-05-12T08:41:55.141Z,7.13
2018-05-12T08:44:23.972Z,7.10
2018-05-12T08:46:52.485Z,6.73
2018-05-12T08:49:20.943Z,7.17
2018-05-12T08:51:49.571Z,5.87
2018-05-12T08:54:19.834Z,6.27
2018-05-12T08:56:53.363Z,4.90
2018-05-12T08:59:23.076Z,9.73
2018-05-12T09:01:52.073Z,7.97
2018-05-12T09:04:20.583Z,10.07
2018-05-12T09:06:49.254Z,8.50
2018-05-12T09:09:20.483Z,8.27
2018-05-12T09:11:49.004Z,9.77
2018-05-12T09:14:17.418Z,7.47
2018-05-12T09:16:50.263Z,8.50
2018-05-12T09:19:19.526Z,6.43
2018-05-12T09:21:48.380Z,6.93
2018-05-12T09:24:17.045Z,7.80
2018-05-12T09:26:47.966Z,7.00
2018-05-12T09:29:18.201Z,6.40
2018-05-12T09:31:47.060Z,7.50
2018-05-12T09:34:15.901Z,5.70
2018-05-12T09:36:44.377Z,6.43
2018-05-12T09:39:13.123Z,9.60
2018-05-12T09:41:42.258Z,7.13
2018-05-12T09:44:12.031Z,5.97
2018-05-12T09:46:41.807Z,7.70
2018-05-12T09:49:12.548Z,7.63
2018-05-12T09:51:42.398Z,5.53
2018-05-12T09:54:29.093Z,6.80
2018-05-12T10:03:27.783Z,6.00
2018-05-12T10:15:34.035Z,5.67
2018-05-12T10:18:03.463Z,5.07
2018-05-12T10:20:35.345Z,7.47
2018-05-12T10:23:08.269Z,5.67
2018-05-12T10:25:38.207Z,5.13
2018-05-12T10:28:07.341Z,6.00
2018-05-12T10:30:36.678Z,5.77
2018-05-12T10:33:05.926Z,6.80
2018-05-12T10:35:40.048Z,5.77
2018-05-12T10:38:11.420Z,6.10
2018-05-12T10:40:46.598Z,6.70
2018-05-12T10:43:21.792Z,9.70
2018-05-12T10:48:27.603Z,6.60
2018-05-12T10:51:02.738Z,4.53
2018-05-12T10:53:35.428Z,5.13
2018-05-12T10:56:08.698Z,4.97
2018-05-12T10:58:44.168Z,5.40
2018-05-12T11:01:14.519Z,4.73
2018-05-12T11:03:52.872Z,5.40
2018-05-12T11:06:31.438Z,5.20
2018-05-12T11:09:07.205Z,5.57
2018-05-12T11:14:33.009Z,7.73
2018-05-12T11:17:06.143Z,6.30
2018-05-12T11:19:42.008Z,6.67
2018-05-12T11:22:27.828Z,6.70
2018-05-12T11:27:50.595Z,5.97
2018-05-12T11:30:40.353Z,8.57
2018-05-12T11:33:12.657Z,10.90
2018-05-12T11:35:51.086Z,5.73
2018-05-12T11:38:29.272Z,8.20
2018-05-12T11:40:59.726Z,6.00
2018-05-12T11:43:31.221Z,6.07
2018-05-12T11:48:50.174Z,7.43
2018-05-12T11:51:28.528Z,6.80
2018-05-12T11:54:05.275Z,5.90
2018-05-12T11:56:50.542Z,9.03
2018-05-12T11:59:29.529Z,8.00
2018-05-12T12:02:03.478Z,6.20
2018-05-12T12:04:36.994Z,9.67
2018-05-12T12:07:12.465Z,9.47
2018-05-12T12:09:46.065Z,6.37
2018-05-12T12:12:16.878Z,8.93
2018-05-12T12:14:53.687Z,9.90
2018-05-12T12:17:32.818Z,5.67
2018-05-12T12:26:05.520Z,4.93
2018-05-12T12:32:33.807Z,7.50
2018-05-12T13:00:29.249Z,7.57
2018-05-12T13:03:04.373Z,6.13
2018-05-12T13:08:24.674Z,6.63
2018-05-12T13:10:59.972Z,6.30
2018-05-12T13:13:30.543Z,8.27
2018-05-12T13:16:02.402Z,6.10
2018-05-12T13:18:37.579Z,5.90
2018-05-12T13:21:26.823Z,5.90
2018-05-12T13:24:00.971Z,7.57
2018-05-12T13:26:29.418Z,5.70
2018-05-12T13:28:57.999Z,10.50
2018-05-12T13:31:26.588Z,5.93
2018-05-12T13:33:57.182Z,10.90
2018-05-12T13:36:26.657Z,6.13
2018-05-12T13:38:56.223Z,6.10
2018-05-12T13:41:31.547Z,10.13
2018-05-12T13:50:05.758Z,6.77
2018-05-12T13:52:46.615Z,5.60
2018-05-12T14:02:04.015Z,10.37
2018-05-12T14:45:32.852Z,5.00
2018-05-12T14:48:01.641Z,5.47
2018-05-12T14:50:30.544Z,6.93
2018-05-12T14:52:59.692Z,10.53
2018-05-12T14:55:28.253Z,7.10
2018-05-12T14:57:57.332Z,6.13
2018-05-12T15:00:26.080Z,6.33
2018-05-12T15:02:55.372Z,10.33
2018-05-12T15:05:25.210Z,6.13
2018-05-12T15:07:54.767Z,6.90
2018-05-12T15:10:23.600Z,6.13
2018-05-12T15:12:52.493Z,6.73
2018-05-12T15:15:22.527Z,7.60
2018-05-12T15:17:51.190Z,5.13
2018-05-12T15:20:21.349Z,5.13
2018-05-12T15:22:50.336Z,6.20
2018-05-12T15:25:20.002Z,4.70
2018-05-12T15:27:49.145Z,10.20
2018-05-12T15:30:21.326Z,6.30
2018-05-12T15:32:50.411Z,6.03
2018-05-12T15:35:20.248Z,5.43
2018-05-12T15:37:49.378Z,7.30
2018-05-12T15:40:18.475Z,7.10
2018-05-12T15:42:47.971Z,5.87
2018-05-12T15:45:16.743Z,5.70
2018-05-12T15:47:46.433Z,6.63
2018-05-12T15:50:15.318Z,6.87
2018-05-12T15:52:43.791Z,8.13
2018-05-12T15:55:12.356Z,10.80
2018-05-12T15:57:42.199Z,5.73
2018-05-12T16:00:10.758Z,5.90
2018-05-12T16:02:40.373Z,6.10
2018-05-12T16:05:08.840Z,8.47
2018-05-12T16:07:37.390Z,7.07
2018-05-12T16:10:06.033Z,5.63
2018-05-12T16:12:34.903Z,5.40
2018-05-12T16:15:03.482Z,5.60
2018-05-12T16:17:31.958Z,5.60
2018-05-12T16:20:00.647Z,9.90
2018-05-12T16:22:29.532Z,7.57
2018-05-12T16:24:57.976Z,18.23
2018-05-12T16:27:26.718Z,5.80
2018-05-12T16:29:55.278Z,6.73
2018-05-12T16:32:24.817Z,4.20
2018-05-12T16:34:54.239Z,10.33
2018-05-12T16:37:22.995Z,6.17
2018-05-12T16:39:51.533Z,5.13
2018-05-12T16:42:20.142Z,5.97
2018-05-12T16:44:48.843Z,6.17
2018-05-12T16:47:17.338Z,5.57
2018-05-12T16:49:45.984Z,4.60
2018-05-12T16:52:16.553Z,4.50
2018-05-12T16:54:45.544Z,5.03
2018-05-12T16:57:14.525Z,8.47
2018-05-12T16:59:43.542Z,5.00
2018-05-12T17:02:14.299Z,4.10
2018-05-12T17:04:43.514Z,5.80
2018-05-12T17:07:13.693Z,5.13
2018-05-12T17:09:42.156Z,4.27
2018-05-12T17:12:10.839Z,4.43
2018-05-12T17:14:39.628Z,4.50
2018-05-12T17:17:09.206Z,5.53
2018-05-12T17:19:38.231Z,5.20
2018-05-12T17:22:08.580Z,5.53
2018-05-12T17:24:37.273Z,4.47
2018-05-12T17:27:06.077Z,4.80
2018-05-12T17:29:34.693Z,4.53
2018-05-12T17:32:03.260Z,4.10
2018-05-12T17:34:31.790Z,4.37
2018-05-12T17:37:00.302Z,4.80
2018-05-12T17:39:29.091Z,5.30
2018-05-12T17:41:57.718Z,6.33
2018-05-12T17:44:29.180Z,6.90
2018-05-12T17:47:05.079Z,5.80
2018-05-12T17:49:35.702Z,6.03
2018-05-12T17:52:05.047Z,6.00
2018-05-12T17:54:33.864Z,6.67
2018-05-12T17:57:03.203Z,5.73
2018-05-12T17:59:31.759Z,9.37
2018-05-12T18:02:00.340Z,5.50
2018-05-12T18:04:29.196Z,5.20
2018-05-12T18:06:58.603Z,7.27
2018-05-12T18:09:28.724Z,5.63
2018-05-12T18:11:57.650Z,5.63
2018-05-12T18:14:26.643Z,7.43
2018-05-12T18:16:55.526Z,5.83
2018-05-12T18:19:24.484Z,7.90
2018-05-12T18:21:53.628Z,6.03
2018-05-12T18:24:22.210Z,7.27
2018-05-12T18:26:51.497Z,5.40
2018-05-12T18:29:21.591Z,6.60
2018-05-12T18:31:50.602Z,5.90
2018-05-12T18:34:19.204Z,6.53
2018-05-12T18:36:48.667Z,5.60
2018-05-12T18:39:20.100Z,7.67
2018-05-12T18:41:49.683Z,8.40
2018-05-12T18:44:19.300Z,7.13
2018-05-12T18:46:50.943Z,5.87
2018-05-12T18:49:21.034Z,6.27
2018-05-12T18:51:49.923Z,7.73
2018-05-12T18:54:18.562Z,6.93
2018-05-12T18:56:47.136Z,7.50
2018-05-12T18:59:16.040Z,7.90
2018-05-12T19:01:44.529Z,8.30
2018-05-12T19:04:13.622Z,10.83
2018-05-12T19:06:42.572Z,7.27
2018-05-12T19:09:13.130Z,19.03
2018-05-12T19:11:42.330Z,8.80
2018-05-12T19:14:11.052Z,14.77
2018-05-12T19:16:39.989Z,13.53
2018-05-12T19:19:08.635Z,10.03
2018-05-12T19:21:37.284Z,8.80
2018-05-12T19:24:08.389Z,10.80
2018-05-12T19:26:39.684Z,19.67
2018-05-12T19:29:09.276Z,16.20
2018-05-12T19:31:39.922Z,12.20
2018-05-12T19:34:08.699Z,18.27
2018-05-12T19:36:37.139Z,16.73
2018-05-12T19:39:05.608Z,20.10
2018-05-12T19:41:34.219Z,27.77
2018-05-12T19:44:03.074Z,22.63
2018-05-12T19:46:33.401Z,14.57
2018-05-12T19:49:01.844Z,14.13
2018-05-12T19:51:31.168Z,8.60
2018-05-12T19:54:00.672Z,13.83
2018-05-12T19:56:29.777Z,14.47
2018-05-12T19:59:00.039Z,11.47
2018-05-12T20:01:28.578Z,10.33
2018-05-12T20:03:57.118Z,8.53
2018-05-12T20:06:25.599Z,11.83
2018-05-12T20:08:54.241Z,9.60
2018-05-12T20:11:23.072Z,10.50
2018-05-12T20:13:51.586Z,8.93
2018-05-12T20:16:20.132Z,13.17
2018-05-12T20:18:48.651Z,19.67
2018-05-12T20:21:17.270Z,12.50
2018-05-12T20:23:45.698Z,12.67
2018-05-12T20:26:14.401Z,17.00
2018-05-12T20:28:43.850Z,9.10
2018-05-12T20:31:12.511Z,10.27
2018-05-12T20:33:41.140Z,18.00
2018-05-12T20:36:09.781Z,18.27
2018-05-12T20:38:38.353Z,13.83
2018-05-12T20:41:06.831Z,20.03
2018-05-12T20:43:35.302Z,11.93
2018-05-12T20:46:03.912Z,11.67
2018-05-12T20:48:32.458Z,14.90
2018-05-12T20:51:00.958Z,11.47
2018-05-12T20:53:29.387Z,8.97
2018-05-12T20:55:57.940Z,12.23
2018-05-12T20:58:26.423Z,9.53
2018-05-12T21:00:54.888Z,9.97
2018-05-12T21:03:23.307Z,12.57
2018-05-12T21:05:51.744Z,9.30
2018-05-12T21:08:20.204Z,10.63
2018-05-12T21:10:48.850Z,13.30
2018-05-12T21:13:18.870Z,14.67
2018-05-12T21:15:47.328Z,10.20
2018-05-12T21:18:15.902Z,12.87
2018-05-12T21:20:44.387Z,11.23
2018-05-12T21:23:12.936Z,15.87
2018-05-12T21:25:41.486Z,15.33
2018-05-12T21:28:09.899Z,15.10
2018-05-12T21:30:39.272Z,15.13
2018-05-12T21:33:07.703Z,11.87
2018-05-12T21:35:36.235Z,17.70
2018-05-12T21:38:05.025Z,17.30
2018-05-12T21:40:33.390Z,14.07
2018-05-12T21:43:01.975Z,13.90
2018-05-12T21:45:30.516Z,14.80
2018-05-12T21:47:59.019Z,15.87
2018-05-12T21:50:27.501Z,16.53
2018-05-12T21:52:56.011Z,14.80
2018-05-12T21:55:24.475Z,17.10
2018-05-12T21:57:53.037Z,16.23
2018-05-12T22:00:21.536Z,23.53
2018-05-12T22:02:50.888Z,21.47
2018-05-12T22:05:19.401Z,20.87
2018-05-12T22:07:47.964Z,22.77
2018-05-12T22:10:16.388Z,17.40
2018-05-12T22:12:44.951Z,25.10
2018-05-12T22:15:13.421Z,22.17
2018-05-12T22:17:41.927Z,22.27
2018-05-12T22:20:10.411Z,25.13
2018-05-12T22:22:38.953Z,29.37
2018-05-12T22:25:07.402Z,23.90
2018-05-12T22:27:35.842Z,32.60
2018-05-12T22:30:04.542Z,26.27
2018-05-12T22:32:32.990Z,26.63
2018-05-12T22:35:01.509Z,33.90
2018-05-12T22:37:30.074Z,31.57
2018-05-12T22:39:58.514Z,33.27
2018-05-12T22:42:26.941Z,29.50
2018-05-12T22:44:55.531Z,34.53
2018-05-12T22:47:24.153Z,28.57
2018-05-12T22:49:52.603Z,37.93
2018-05-12T22:52:21.093Z,30.10
2018-05-12T22:54:49.639Z,29.83
2018-05-12T22:57:18.249Z,33.87
2018-05-12T22:59:46.757Z,31.77
2018-05-12T23:02:15.214Z,38.27
2018-05-12T23:04:43.684Z,29.00
2018-05-12T23:07:12.193Z,34.23
2018-05-12T23:09:40.694Z,35.77
2018-05-12T23:12:09.235Z,31.53
2018-05-12T23:14:37.813Z,38.37
2018-05-12T23:17:06.432Z,37.10
2018-05-12T23:19:34.931Z,29.90
2018-05-12T23:22:03.678Z,33.30
2018-05-12T23:24:32.175Z,29.63
2018-05-12T23:27:00.762Z,33.57
2018-05-12T23:29:29.321Z,33.87
2018-05-12T23:32:01.525Z,28.63
2018-05-12T23:34:30.055Z,29.77
2018-05-12T23:36:58.558Z,32.03
2018-05-12T23:39:26.963Z,28.30
2018-05-12T23:41:55.644Z,30.07
2018-05-12T23:44:24.222Z,34.43
2018-05-12T23:46:52.910Z,31.57
2018-05-12T23:49:21.416Z,38.20
2018-05-12T23:51:49.883Z,37.60
2018-05-12T23:54:18.423Z,38.37
2018-05-12T23:56:46.857Z,34.23
2018-05-12T23:59:15.326Z,36.60
